Terminal Aerodrome Forecast
Issued by NWS

Home | Current Version | Previous Version | Text Only | Print | Product List | Glossary On
Versions: 1 2 3 4 5 6 7 8 9 10 11 12 13 14 15 16
000
FTUS41 KILN 252325
TAFLUK
TAF
KLUK 252325Z 2600/2624 15007KT P6SM BKN150
     FM260400 15005KT P6SM VCSH OVC080
     FM260800 16006KT 6SM -SHRA OVC050
     FM261500 17008KT 4SM -SHRA OVC025
     FM261800 19008KT P6SM -SHRA VCTS OVC040CB
     FM262300 21007KT P6SM BKN050=

USA.gov is the U.S. government's official web portal to all federal, state and local government web resources and services.